Weather at Indianapolis International Airport

Public forecast

Using degrees Fahrenheit for public forecast. Weather courtesy of forecast.io.

Current aviation weather report (METAR) for Indianapolis International Airport

Retrieved 2020/09/24 06:54 UTC (55 minutes ago):

KIND 240654Z 00000KT 10SM OVC170 15/12 A3003 RMK AO2 SLP166 T01500117

Aviation forecast (TAF) for Indianapolis International Airport

Retrieved 2020/09/24 06:22 UTC (1 hour ago):

TAF KIND 240520Z 2406/2512 21006KT P6SM OVC250 FM240700 VRB04KT P6SM SCT210